createdAt,value
2022-11-25T00:01:34.227Z,49.08
2022-11-25T00:04:02.747Z,48.56
2022-11-25T00:06:33.888Z,48.79
2022-11-25T00:09:07.933Z,49.11
2022-11-25T00:11:42.448Z,49.39
2022-11-25T00:14:14.537Z,48.98
2022-11-25T00:16:48.483Z,48.45
2022-11-25T00:19:18.121Z,48.50
2022-11-25T00:21:46.540Z,48.30
2022-11-25T00:24:16.124Z,49.06
2022-11-25T00:26:45.514Z,49.21
2022-11-25T00:29:14.512Z,49.33
2022-11-25T00:31:43.176Z,48.85
2022-11-25T00:34:13.834Z,48.30
2022-11-25T00:36:42.807Z,48.64
2022-11-25T00:39:14.356Z,49.07
2022-11-25T00:42:03.351Z,48.99
2022-11-25T00:44:41.803Z,48.48
2022-11-25T00:47:16.105Z,48.53
2022-11-25T00:49:53.810Z,48.29
2022-11-25T00:52:27.036Z,48.50
2022-11-25T00:54:55.382Z,48.36
2022-11-25T00:57:25.807Z,48.49
2022-11-25T00:59:54.285Z,48.89
2022-11-25T01:02:23.416Z,48.74
2022-11-25T01:04:51.951Z,48.85
2022-11-25T01:07:21.427Z,48.42
2022-11-25T01:09:51.066Z,48.54
2022-11-25T01:12:19.497Z,48.42
2022-11-25T01:14:47.877Z,48.10
2022-11-25T01:17:17.278Z,48.89
2022-11-25T01:19:45.648Z,48.72
2022-11-25T01:22:14.061Z,48.26
2022-11-25T01:24:42.420Z,48.53
2022-11-25T01:27:10.759Z,48.29
2022-11-25T01:29:41.455Z,48.51
2022-11-25T01:32:09.966Z,48.28
2022-11-25T01:34:38.551Z,48.95
2022-11-25T01:37:07.142Z,48.77
2022-11-25T01:39:35.595Z,49.17
2022-11-25T01:42:04.104Z,49.13
2022-11-25T01:44:33.168Z,48.83
2022-11-25T01:47:15.593Z,48.37
2022-11-25T01:49:50.058Z,48.26
2022-11-25T01:52:40.648Z,50.39
2022-11-25T01:55:23.487Z,48.76
2022-11-25T01:57:55.498Z,49.61
2022-11-25T02:00:23.983Z,49.03
2022-11-25T02:02:54.843Z,48.68
2022-11-25T02:05:33.954Z,48.65
2022-11-25T02:08:04.628Z,48.67
2022-11-25T02:10:35.454Z,49.38
2022-11-25T02:13:04.025Z,49.66
2022-11-25T02:15:35.265Z,48.83
2022-11-25T02:18:05.432Z,48.54
2022-11-25T02:20:33.997Z,48.61
2022-11-25T02:23:37.706Z,48.81
2022-11-25T02:26:06.172Z,48.61
2022-11-25T02:28:35.031Z,49.27
2022-11-25T02:31:04.746Z,49.10
2022-11-25T02:33:33.255Z,48.82
2022-11-25T02:36:14.906Z,48.88
2022-11-25T02:38:57.639Z,48.97
2022-11-25T02:41:41.060Z,48.62
2022-11-25T02:44:09.557Z,49.29
2022-11-25T02:46:38.108Z,50.06
2022-11-25T02:49:09.704Z,50.68
2022-11-25T02:51:41.646Z,50.18
2022-11-25T02:54:13.013Z,49.72
2022-11-25T02:56:42.009Z,49.52
2022-11-25T02:59:10.771Z,49.24
2022-11-25T03:01:40.258Z,49.69
2022-11-25T03:04:08.801Z,49.54
2022-11-25T03:06:37.350Z,49.59
2022-11-25T03:09:05.801Z,49.34
2022-11-25T03:11:52.636Z,50.14
2022-11-25T03:14:21.031Z,50.16
2022-11-25T03:16:49.653Z,49.88
2022-11-25T03:19:18.166Z,49.98
2022-11-25T03:21:46.557Z,49.79
2022-11-25T03:24:14.970Z,49.77
2022-11-25T03:26:44.415Z,49.83
2022-11-25T03:29:12.821Z,49.82
2022-11-25T03:31:41.312Z,49.87
2022-11-25T03:34:09.775Z,49.96
2022-11-25T03:36:39.447Z,50.40
2022-11-25T03:39:07.814Z,50.62
2022-11-25T03:41:36.145Z,50.88
2022-11-25T03:44:04.659Z,50.50
2022-11-25T03:46:33.061Z,50.02
2022-11-25T03:49:01.492Z,49.71
2022-11-25T03:51:29.893Z,49.75
2022-11-25T03:53:58.400Z,49.74
2022-11-25T03:56:26.941Z,49.80
2022-11-25T03:58:55.371Z,50.08
2022-11-25T04:01:23.856Z,49.81
2022-11-25T04:03:52.333Z,49.54
2022-11-25T04:06:22.116Z,49.80
2022-11-25T04:08:51.164Z,50.22
2022-11-25T04:11:20.587Z,50.11
2022-11-25T04:13:48.971Z,50.27
2022-11-25T04:16:24.857Z,50.30
2022-11-25T04:18:53.266Z,50.14
2022-11-25T04:21:21.639Z,49.98
2022-11-25T04:23:50.061Z,50.22
2022-11-25T04:26:18.425Z,50.15
2022-11-25T04:28:46.853Z,49.77
2022-11-25T04:31:16.368Z,49.93
2022-11-25T04:33:48.446Z,50.15
2022-11-25T04:36:20.788Z,50.66
2022-11-25T04:38:49.400Z,50.92
2022-11-25T04:41:18.821Z,50.67
2022-11-25T04:43:47.218Z,50.39
2022-11-25T04:46:24.878Z,50.36
2022-11-25T04:48:53.382Z,49.99
2022-11-25T04:51:21.806Z,50.15
2022-11-25T04:53:50.190Z,50.56
2022-11-25T04:56:20.235Z,50.55
2022-11-25T04:59:06.996Z,50.40
2022-11-25T05:01:35.522Z,50.47
2022-11-25T05:04:04.162Z,50.43
2022-11-25T05:06:32.585Z,50.79
2022-11-25T05:09:01.035Z,50.68
2022-11-25T05:11:29.392Z,50.56
2022-11-25T05:13:57.781Z,50.35
2022-11-25T05:16:26.299Z,50.35
2022-11-25T05:18:57.737Z,50.45
2022-11-25T05:21:26.137Z,50.69
2022-11-25T05:23:56.093Z,51.20
2022-11-25T05:26:24.709Z,51.16
2022-11-25T05:28:53.082Z,50.85
2022-11-25T05:31:21.530Z,51.26
2022-11-25T05:33:50.128Z,51.05
2022-11-25T05:36:18.599Z,51.11
2022-11-25T05:38:47.402Z,51.12
2022-11-25T05:41:15.898Z,50.85
2022-11-25T05:43:44.319Z,51.39
2022-11-25T05:46:13.140Z,51.38
2022-11-25T05:48:41.665Z,51.06
2022-11-25T05:51:10.343Z,50.82
2022-11-25T05:53:38.708Z,51.05
2022-11-25T05:56:07.814Z,51.19
2022-11-25T05:58:36.259Z,50.97
2022-11-25T06:01:12.253Z,51.12
2022-11-25T06:03:42.277Z,51.31
2022-11-25T06:06:11.953Z,51.09
2022-11-25T06:08:40.391Z,51.17
2022-11-25T06:11:13.397Z,51.30
2022-11-25T06:13:43.866Z,51.26
2022-11-25T06:16:15.683Z,51.26
2022-11-25T06:18:44.381Z,51.65
2022-11-25T06:21:13.127Z,51.63
2022-11-25T06:23:41.622Z,51.72
2022-11-25T06:26:13.468Z,51.64
2022-11-25T06:28:42.315Z,51.57
2022-11-25T06:31:14.487Z,51.06
2022-11-25T06:33:42.865Z,50.88
2022-11-25T06:36:17.009Z,51.42
2022-11-25T06:38:52.048Z,51.44
2022-11-25T06:41:22.827Z,51.24
2022-11-25T06:43:51.292Z,51.67
2022-11-25T06:46:24.916Z,51.77
2022-11-25T06:48:54.143Z,51.58
2022-11-25T06:51:24.471Z,51.80
2022-11-25T06:53:53.612Z,51.89
2022-11-25T06:56:27.736Z,51.60
2022-11-25T06:58:56.972Z,51.58
2022-11-25T07:01:29.495Z,51.51
2022-11-25T07:04:03.457Z,52.29
2022-11-25T07:06:33.420Z,52.20
2022-11-25T07:09:02.532Z,51.78
2022-11-25T07:11:33.587Z,51.99
2022-11-25T07:14:06.344Z,52.03
2022-11-25T07:16:38.203Z,52.75
2022-11-25T07:19:07.941Z,52.93
2022-11-25T07:21:36.582Z,53.27
2022-11-25T07:24:07.848Z,52.81
2022-11-25T07:26:38.371Z,52.74
2022-11-25T07:29:29.394Z,52.23
2022-11-25T07:31:59.582Z,52.14
2022-11-25T07:34:28.998Z,51.92
2022-11-25T07:36:58.441Z,51.80
2022-11-25T07:39:26.924Z,52.16
2022-11-25T07:41:55.438Z,52.49
2022-11-25T07:44:24.025Z,52.51
2022-11-25T07:46:52.560Z,52.10
2022-11-25T07:49:25.309Z,52.20
2022-11-25T07:51:59.677Z,52.18
2022-11-25T07:54:29.124Z,52.37
2022-11-25T07:56:57.768Z,52.50
2022-11-25T07:59:27.241Z,52.60
2022-11-25T08:01:56.389Z,53.34
2022-11-25T08:04:25.987Z,53.16
2022-11-25T08:06:55.462Z,52.61
2022-11-25T08:09:24.199Z,52.25
2022-11-25T08:11:52.996Z,52.63
2022-11-25T08:14:21.702Z,53.01
2022-11-25T08:16:50.216Z,52.79
2022-11-25T08:19:18.882Z,53.03
2022-11-25T08:21:50.258Z,52.91
2022-11-25T08:24:21.052Z,52.82
2022-11-25T08:26:49.804Z,52.96
2022-11-25T08:29:19.209Z,52.61
2022-11-25T08:31:47.685Z,52.64
2022-11-25T08:34:22.667Z,52.72
2022-11-25T08:36:52.088Z,52.62
2022-11-25T08:39:51.154Z,52.65
2022-11-25T08:42:11.011Z,53.28
2022-11-25T08:44:39.606Z,52.92
2022-11-25T08:47:09.772Z,52.72
2022-11-25T08:49:41.243Z,53.21
2022-11-25T08:52:10.711Z,53.21
2022-11-25T08:54:39.350Z,52.83
2022-11-25T08:57:07.828Z,53.22
2022-11-25T08:59:36.954Z,53.29
2022-11-25T09:02:07.251Z,53.64
2022-11-25T09:04:35.776Z,53.36
2022-11-25T09:07:04.987Z,53.11
2022-11-25T09:09:33.705Z,53.33
2022-11-25T09:12:02.142Z,53.44
2022-11-25T09:14:30.641Z,53.09
2022-11-25T09:17:01.977Z,53.12
2022-11-25T09:19:31.532Z,53.97
2022-11-25T09:21:59.973Z,53.62
2022-11-25T09:24:28.500Z,53.04
2022-11-25T09:26:56.978Z,54.08
2022-11-25T09:29:26.331Z,53.39
2022-11-25T09:31:55.772Z,52.94
2022-11-25T09:34:24.409Z,52.86
2022-11-25T09:36:53.038Z,52.97
2022-11-25T09:39:21.426Z,52.65
2022-11-25T09:42:34.640Z,52.17
2022-11-25T09:45:33.821Z,52.04
2022-11-25T09:48:20.332Z,52.06
2022-11-25T09:51:02.843Z,52.44
2022-11-25T09:53:53.193Z,54.93
2022-11-25T09:56:40.855Z,52.91
2022-11-25T09:59:25.025Z,53.08
2022-11-25T10:02:02.610Z,52.17
2022-11-25T10:04:55.114Z,51.44
2022-11-25T10:07:33.281Z,51.70
2022-11-25T10:10:04.789Z,52.06
2022-11-25T10:12:39.913Z,51.96
2022-11-25T10:15:34.146Z,51.62
2022-11-25T10:18:27.307Z,50.90
2022-11-25T10:20:55.975Z,51.15
2022-11-25T10:23:35.418Z,50.95
2022-11-25T10:26:15.634Z,51.36
2022-11-25T10:29:00.260Z,50.85
2022-11-25T10:31:38.175Z,50.37
2022-11-25T10:34:26.911Z,50.06
2022-11-25T10:36:58.860Z,50.88
2022-11-25T10:39:31.829Z,50.73
2022-11-25T10:42:12.715Z,50.09
2022-11-25T10:44:42.244Z,49.76
2022-11-25T10:47:29.379Z,50.82
2022-11-25T10:50:20.186Z,50.01
2022-11-25T10:53:10.719Z,49.84
2022-11-25T10:55:39.271Z,49.61
2022-11-25T10:58:29.094Z,49.03
2022-11-25T11:01:36.028Z,49.01
2022-11-25T11:04:11.615Z,49.39
2022-11-25T11:06:42.401Z,49.69
2022-11-25T11:09:34.523Z,49.44
2022-11-25T11:12:19.647Z,48.96
2022-11-25T11:14:48.884Z,49.08
2022-11-25T11:17:36.824Z,48.58
2022-11-25T11:20:09.166Z,48.37
2022-11-25T11:22:47.175Z,48.59
2022-11-25T11:25:21.656Z,48.40
2022-11-25T11:27:50.295Z,49.71
2022-11-25T11:30:23.182Z,48.71
2022-11-25T11:32:57.724Z,48.34
2022-11-25T11:35:45.316Z,47.84
2022-11-25T11:38:30.425Z,47.75
2022-11-25T11:41:30.083Z,48.02
2022-11-25T11:44:23.029Z,47.70
2022-11-25T11:47:03.682Z,47.49
2022-11-25T11:49:50.541Z,47.83
2022-11-25T11:52:47.573Z,48.08
2022-11-25T11:56:11.742Z,47.96
2022-11-25T11:58:38.808Z,46.75
2022-11-25T12:01:20.970Z,46.78
2022-11-25T12:04:03.615Z,47.66
2022-11-25T12:06:35.029Z,46.64
2022-11-25T12:09:18.454Z,48.55
2022-11-25T12:11:54.183Z,46.90
2022-11-25T12:14:40.629Z,46.97
2022-11-25T12:17:18.753Z,46.22
2022-11-25T12:20:00.216Z,46.28
2022-11-25T12:22:42.474Z,46.13
2022-11-25T12:25:21.273Z,46.20
2022-11-25T12:28:06.619Z,45.93
2022-11-25T12:30:41.786Z,46.22
2022-11-25T12:33:21.640Z,46.26
2022-11-25T12:36:16.672Z,45.99
2022-11-25T12:39:04.077Z,45.58
2022-11-25T12:41:42.295Z,46.21
2022-11-25T12:44:19.739Z,45.92
2022-11-25T12:46:53.383Z,45.85
2022-11-25T12:49:25.643Z,45.88
2022-11-25T12:52:26.933Z,45.54
2022-11-25T12:55:14.678Z,45.99
2022-11-25T12:58:16.923Z,46.04
2022-11-25T13:00:56.608Z,46.54
2022-11-25T13:03:31.127Z,45.81
2022-11-25T13:06:16.300Z,46.10
2022-11-25T13:08:51.804Z,47.26
2022-11-25T13:11:24.004Z,47.11
2022-11-25T13:14:08.334Z,48.46
2022-11-25T13:16:37.504Z,48.69
2022-11-25T13:19:12.248Z,47.78
2022-11-25T13:22:00.309Z,46.91
2022-11-25T13:24:34.288Z,47.37
2022-11-25T13:27:05.160Z,47.92
2022-11-25T13:29:39.930Z,47.21
2022-11-25T13:32:31.649Z,46.95
2022-11-25T13:35:26.224Z,46.30
2022-11-25T13:37:54.670Z,46.23
2022-11-25T13:40:23.043Z,46.64
2022-11-25T13:42:52.507Z,46.67
2022-11-25T13:45:32.367Z,46.39
2022-11-25T13:48:18.889Z,46.12
2022-11-25T13:51:09.974Z,46.23
2022-11-25T13:53:38.871Z,46.51
2022-11-25T13:56:24.400Z,45.95
2022-11-25T13:59:11.153Z,46.42
2022-11-25T14:01:46.929Z,46.43
2022-11-25T14:04:16.574Z,45.87
2022-11-25T14:07:20.287Z,46.41
2022-11-25T14:10:17.011Z,46.29
2022-11-25T14:12:59.247Z,47.05
2022-11-25T14:15:44.456Z,46.17
2022-11-25T14:19:16.866Z,46.05
2022-11-25T14:21:45.667Z,45.99
2022-11-25T14:24:28.156Z,45.85
2022-11-25T14:26:59.205Z,45.90
2022-11-25T14:29:30.838Z,46.00
2022-11-25T14:32:08.757Z,46.00
2022-11-25T14:34:49.160Z,45.34
2022-11-25T14:37:44.208Z,46.00
2022-11-25T14:40:21.971Z,46.12
2022-11-25T14:42:54.039Z,46.26
2022-11-25T14:45:26.292Z,46.48
2022-11-25T14:47:55.375Z,46.34
2022-11-25T14:50:40.452Z,46.29
2022-11-25T14:53:11.259Z,46.33
2022-11-25T14:55:39.722Z,46.52
2022-11-25T14:58:12.497Z,46.73
2022-11-25T15:00:59.863Z,47.06
2022-11-25T15:03:28.490Z,47.01
2022-11-25T15:06:06.025Z,46.84
2022-11-25T15:08:45.703Z,47.07
2022-11-25T15:11:18.679Z,46.79
2022-11-25T15:13:53.030Z,47.11
2022-11-25T15:16:26.010Z,46.54
2022-11-25T15:18:59.863Z,46.64
2022-11-25T15:22:00.051Z,46.55
2022-11-25T15:24:48.948Z,46.60
2022-11-25T15:27:25.151Z,47.34
2022-11-25T15:29:55.774Z,47.34
2022-11-25T15:32:29.805Z,46.79
2022-11-25T15:35:02.399Z,46.70
2022-11-25T15:37:30.953Z,47.03
2022-11-25T15:40:30.162Z,46.87
2022-11-25T15:43:02.493Z,47.54
2022-11-25T15:45:44.313Z,47.29
2022-11-25T15:48:24.324Z,47.62
2022-11-25T15:50:56.486Z,47.33
2022-11-25T15:53:31.666Z,47.03
2022-11-25T15:56:03.307Z,47.07
2022-11-25T15:58:31.799Z,47.07
2022-11-25T16:01:19.237Z,46.91
2022-11-25T16:03:49.376Z,47.29
2022-11-25T16:06:26.547Z,47.19
2022-11-25T16:09:00.936Z,47.20
2022-11-25T16:11:33.607Z,47.37
2022-11-25T16:14:26.867Z,47.77
2022-11-25T16:17:01.950Z,48.02
2022-11-25T16:19:37.769Z,48.22
2022-11-25T16:22:14.451Z,48.31
2022-11-25T16:24:50.625Z,48.17
2022-11-25T16:27:19.282Z,47.97
2022-11-25T16:29:50.692Z,48.12
2022-11-25T16:32:28.287Z,48.08
2022-11-25T16:35:09.972Z,48.00
2022-11-25T16:37:42.775Z,47.49
2022-11-25T16:40:15.366Z,47.75
2022-11-25T16:42:48.732Z,47.86
2022-11-25T16:45:23.422Z,47.76
2022-11-25T16:47:51.950Z,47.49
2022-11-25T16:50:23.144Z,47.48
2022-11-25T16:52:51.504Z,47.96
2022-11-25T16:55:20.131Z,47.65
2022-11-25T16:57:48.612Z,47.70
2022-11-25T17:00:18.391Z,47.81
2022-11-25T17:02:46.828Z,47.98
2022-11-25T17:05:24.312Z,48.20
2022-11-25T17:07:52.904Z,48.23
2022-11-25T17:10:21.693Z,47.83
2022-11-25T17:12:50.880Z,47.63
2022-11-25T17:15:24.795Z,47.59
2022-11-25T17:17:54.633Z,47.59
2022-11-25T17:20:24.773Z,47.98
2022-11-25T17:22:54.134Z,48.30
2022-11-25T17:25:25.578Z,48.40
2022-11-25T17:27:54.747Z,48.56
2022-11-25T17:30:25.514Z,48.85
2022-11-25T17:33:06.374Z,48.63
2022-11-25T17:35:34.780Z,48.79
2022-11-25T17:38:12.155Z,48.93
2022-11-25T17:40:43.175Z,48.82
2022-11-25T17:43:16.540Z,49.06
2022-11-25T17:45:46.623Z,48.94
2022-11-25T17:48:17.436Z,49.11
2022-11-25T17:50:47.337Z,49.18
2022-11-25T17:53:15.786Z,49.25
2022-11-25T17:55:44.247Z,49.05
2022-11-25T17:58:15.442Z,48.99
2022-11-25T18:00:45.242Z,49.34
2022-11-25T18:03:16.315Z,49.63
2022-11-25T18:05:45.947Z,49.91
2022-11-25T18:08:14.582Z,49.94
2022-11-25T18:10:46.246Z,49.99
2022-11-25T18:13:16.233Z,50.27
2022-11-25T18:15:44.726Z,49.72
2022-11-25T18:18:21.843Z,50.09
2022-11-25T18:20:51.488Z,49.84
2022-11-25T18:23:20.063Z,49.66
2022-11-25T18:25:48.808Z,49.41
2022-11-25T18:28:24.664Z,49.18
2022-11-25T18:30:57.046Z,49.13
2022-11-25T18:33:25.546Z,48.93
2022-11-25T18:35:54.109Z,49.11
2022-11-25T18:38:22.704Z,49.90
2022-11-25T18:40:53.936Z,50.40
2022-11-25T18:43:26.244Z,50.46
2022-11-25T18:45:55.599Z,50.32
2022-11-25T18:48:25.929Z,50.34
2022-11-25T18:50:56.117Z,49.98
2022-11-25T18:53:24.663Z,49.78
2022-11-25T18:55:53.206Z,49.84
2022-11-25T18:58:24.370Z,49.69
2022-11-25T19:00:57.925Z,49.49
2022-11-25T19:03:26.561Z,49.73
2022-11-25T19:05:55.889Z,50.14
2022-11-25T19:08:24.382Z,50.02
2022-11-25T19:10:53.293Z,49.94
2022-11-25T19:13:34.938Z,50.34
2022-11-25T19:16:12.029Z,49.83
2022-11-25T19:18:40.700Z,49.90
2022-11-25T19:21:18.453Z,49.99
2022-11-25T19:23:47.926Z,49.90
2022-11-25T19:26:24.945Z,49.87
2022-11-25T19:29:01.567Z,49.78
2022-11-25T19:31:33.198Z,50.66
2022-11-25T19:34:02.114Z,50.31
2022-11-25T19:36:31.750Z,49.98
2022-11-25T19:39:00.548Z,49.72
2022-11-25T19:41:29.242Z,50.18
2022-11-25T19:43:57.830Z,50.39
2022-11-25T19:46:33.108Z,50.31
2022-11-25T19:49:03.060Z,50.66
2022-11-25T19:51:33.953Z,51.06
2022-11-25T19:54:12.231Z,50.73
2022-11-25T19:56:41.363Z,50.70
2022-11-25T19:59:10.486Z,50.40
2022-11-25T20:01:43.459Z,50.20
2022-11-25T20:04:22.045Z,50.06
2022-11-25T20:06:50.619Z,50.55
2022-11-25T20:09:19.022Z,50.41
2022-11-25T20:11:47.632Z,51.42
2022-11-25T20:14:16.089Z,51.24
2022-11-25T20:16:44.658Z,50.67
2022-11-25T20:19:18.150Z,50.31
2022-11-25T20:21:47.377Z,50.38
2022-11-25T20:24:19.514Z,50.37
2022-11-25T20:26:51.599Z,50.39
2022-11-25T20:29:27.399Z,51.06
2022-11-25T20:31:58.783Z,51.16
2022-11-25T20:34:28.266Z,50.78
2022-11-25T20:36:56.995Z,51.21
2022-11-25T20:39:25.593Z,51.01
2022-11-25T20:41:54.007Z,51.25
2022-11-25T20:44:23.623Z,51.66
2022-11-25T20:46:52.255Z,51.61
2022-11-25T20:49:29.339Z,51.38
2022-11-25T20:51:59.234Z,51.34
2022-11-25T20:54:27.825Z,51.64
2022-11-25T20:56:57.284Z,51.69
2022-11-25T20:59:25.769Z,51.27
2022-11-25T21:01:54.897Z,51.54
2022-11-25T21:04:23.606Z,51.34
2022-11-25T21:06:52.062Z,51.70
2022-11-25T21:09:24.812Z,51.48
2022-11-25T21:11:53.278Z,51.64
2022-11-25T21:14:21.717Z,51.70
2022-11-25T21:16:50.353Z,52.34
2022-11-25T21:19:18.908Z,52.13
2022-11-25T21:21:50.571Z,52.81
2022-11-25T21:24:51.426Z,51.92
2022-11-25T21:27:20.562Z,51.89
2022-11-25T21:29:48.902Z,51.75
2022-11-25T21:32:22.871Z,52.22
2022-11-25T21:34:52.123Z,52.11
2022-11-25T21:37:30.145Z,52.28
2022-11-25T21:39:59.213Z,52.81
2022-11-25T21:42:29.667Z,52.04
2022-11-25T21:44:58.191Z,51.97
2022-11-25T21:47:29.544Z,51.68
2022-11-25T21:49:58.367Z,51.47
2022-11-25T21:52:26.844Z,51.69
2022-11-25T21:54:55.266Z,51.84
2022-11-25T21:57:27.958Z,51.97
2022-11-25T21:59:56.403Z,51.82
2022-11-25T22:02:24.977Z,51.71
2022-11-25T22:04:54.749Z,51.79
2022-11-25T22:07:29.176Z,51.35
2022-11-25T22:09:59.132Z,51.82
2022-11-25T22:12:30.225Z,51.22
2022-11-25T22:15:00.775Z,51.35
2022-11-25T22:17:30.033Z,51.53
2022-11-25T22:19:58.861Z,51.63
2022-11-25T22:22:27.940Z,51.36
2022-11-25T22:24:56.366Z,51.64
2022-11-25T22:27:36.202Z,51.48
2022-11-25T22:30:05.716Z,51.08
2022-11-25T22:32:34.214Z,50.79
2022-11-25T22:35:02.624Z,50.88
2022-11-25T22:37:31.221Z,50.78
2022-11-25T22:39:59.692Z,50.61
2022-11-25T22:42:30.990Z,50.84
2022-11-25T22:45:02.131Z,50.83
2022-11-25T22:47:37.312Z,50.96
2022-11-25T22:50:14.389Z,51.23
2022-11-25T22:52:43.097Z,50.91
2022-11-25T22:55:16.401Z,51.05
2022-11-25T22:57:45.585Z,51.09
2022-11-25T23:00:23.858Z,50.92
2022-11-25T23:02:56.258Z,50.76
2022-11-25T23:05:32.567Z,50.31
2022-11-25T23:08:09.813Z,50.63
2022-11-25T23:10:38.268Z,50.52
2022-11-25T23:13:06.997Z,50.46
2022-11-25T23:15:36.261Z,50.97
2022-11-25T23:18:12.121Z,50.82
2022-11-25T23:20:41.682Z,50.77
2022-11-25T23:23:19.819Z,51.14
2022-11-25T23:25:49.204Z,51.53
2022-11-25T23:28:17.693Z,51.54
2022-11-25T23:30:52.035Z,51.05
2022-11-25T23:33:29.599Z,50.84
2022-11-25T23:35:59.233Z,50.79
2022-11-25T23:38:28.811Z,50.93
2022-11-25T23:40:57.279Z,51.18
2022-11-25T23:43:26.583Z,52.12
2022-11-25T23:45:56.488Z,52.41
2022-11-25T23:48:29.272Z,52.55
2022-11-25T23:50:59.223Z,52.73
2022-11-25T23:53:33.566Z,52.14
2022-11-25T23:56:02.099Z,52.71
2022-11-25T23:58:30.659Z,53.23
